Gaz Palmyra — 3FCO4 — position and weather

sailwx.info

Track history (hours):
 
Tides and Currents Weather Stations Pressure Air Temp Water Temp Dewpoint Dewpoint Depression Visibility Wind Speed Wind Dir Waves Ship Positions

Gaz Palmyra

Last reported at 2017-Feb-11 01:25 UTC. Time now 2017-Feb-28 07:35 UTC.
Position N 36°46' E 003°06'.
Warning: this ship's position is 17 days out of date.

Length 137 m; draft 8.1 m.

Type: Ship (hazmat cat C). MMSI: 353247000.

Date/timePositionNaut miles runAvg speedWind from/ knotsBaromVisibWave heightAir tempDewpointWater temp
2017-Feb-11 01:25N 36°46' E 003°06'0 0.0
2017-Feb-10 23:31N 36°46' E 003°06'0 0.0
2017-Feb-10 22:19N 36°46' E 003°06'0 0.0
2017-Feb-10 21:31N 36°46' E 003°06'0 0.0
2017-Feb-10 20:31N 36°46' E 003°06'0 0.0
2017-Feb-10 19:25N 36°46' E 003°06'0 0.0
2017-Feb-10 18:31N 36°46' E 003°06'4 4.3
2017-Feb-10 17:33N 36°50' E 003°04'8 7.8
2017-Feb-10 16:33N 36°53' E 002°56'8 8.2
2017-Feb-10 15:33N 36°52' E 002°45'18 9.1
2017-Feb-10 13:33N 36°49' E 002°23'19 9.4
2017-Feb-10 11:30N 36°46' E 001°59'29 9.1
2017-Feb-10 08:19N 36°42' E 001°24'  
Track history (hours):
 
Tides and Currents Weather Stations Pressure Air Temp Water Temp Dewpoint Dewpoint Depression Visibility Wind Speed Wind Dir Waves Ship Positions

Gaz Palmyra

Last reported at 2017-Feb-11 01:25 UTC. Time now 2017-Feb-28 07:35 UTC.
Position N 36°46' E 003°06'.
Warning: this ship's position is 17 days out of date.

Length 137 m; draft 8.1 m.

Type: Ship (hazmat cat C). MMSI: 353247000.

Date/timePositionNaut miles runAvg speedWind from/ knotsBaromVisibWave heightAir tempDewpointWater temp
2017-Feb-11 01:25N 36°46' E 003°06'0 0.0
2017-Feb-10 23:31N 36°46' E 003°06'0 0.0
2017-Feb-10 22:19N 36°46' E 003°06'0 0.0
2017-Feb-10 21:31N 36°46' E 003°06'0 0.0
2017-Feb-10 20:31N 36°46' E 003°06'0 0.0
2017-Feb-10 19:25N 36°46' E 003°06'0 0.0
2017-Feb-10 18:31N 36°46' E 003°06'4 4.3
2017-Feb-10 17:33N 36°50' E 003°04'8 7.8
2017-Feb-10 16:33N 36°53' E 002°56'8 8.2
2017-Feb-10 15:33N 36°52' E 002°45'18 9.1
2017-Feb-10 13:33N 36°49' E 002°23'19 9.4
2017-Feb-10 11:30N 36°46' E 001°59'29 9.1
2017-Feb-10 08:19N 36°42' E 001°24'  

Dump ship's entire track history